Kecskemet, Hungary
Current Conditions -  °F | °C
As of 10:15 AM on Thursday 29 Jan 2015 (Local Time) from LHKE Reporting Station
Haze Haze  
Wind Chill: 21°   Ceiling: 800
Heat Index: 30°   Visibility: 1.8mi
Dew Point: 30°   Wind: 12mph
Humidity: 100%   Direction: 160°SSE
Pressure: 29.65"   Gusts: NA
Location:  46.91°N, 19.69°E
Report Text: LHKE 290815Z 16010KT 130V190 3000 BR OVC008 M01/M01 Q1004 NOSIG RMK YLO
Loading
Personal Weather Stations






























Interactive Weather Map New forecast layout! Learn more

10-Day Weather Forecast

Advertisements
Track Severe Weather on mobile